Weather at Greenbush Airport

Public forecast

Using degrees Celsius for public forecast. Weather courtesy of forecast.io.

Closest aviation weather report (METAR) to Greenbush Airport

Closest report is CFB Trenton, 20.9 nm (38.6 km) WNW.

2024/07/23 00:00 (retrieved 29 minutes ago)

CYTR 230000Z 26005KT 15SM FEW040 FEW150 BKN180 24/18 A2994 RMK CU1AC2AS5 DENSITY ALT 1662FT SLP140

Closest aviation forecast (TAF) to Greenbush Airport

Closest forecast is Kingston Norman Rogers Airport, 24.6 nm (45.5 km) ENE.

2024/07/22 20:00 (retrieved 4 hours ago)

TAF CYGK 221940Z 2220/2303 18008KT P6SM FEW015 SCT040 BKN250 RMK NXT FCST BY 231200Z